Terminal Aerodrome Forecast
Issued by NWS Wilmington, OH

Current Version | Previous Version | Graphics & Text | Print | Product List | Glossary On
Versions: 1 2 3 4 5 6 7 8 9 10 11 12 13 14 15 16 17 18 19 20 21 22 23 24 25
021
FTUS41 KILN 222100 AAA
TAFCVG
TAF AMD
KCVG 222100Z 2221/2324 06009KT P6SM SCT050 OVC140
     FM230000 04010KT P6SM VCSH SCT035 OVC100
     FM230600 36015KT P6SM VCSH SCT015 OVC035
     FM230800 36015KT 5SM -SHRA BR OVC007
     FM231400 35015G22KT 3SM BR VCSH OVC010=

USA.gov is the U.S. government's official web portal to all federal, state and local government web resources and services.